sensor_id;sensor_type;location;lat;lon;timestamp;P1;durP1;ratioP1;P2;durP2;ratioP2
24163;SDS011;12319;49.204;8.116;2023-12-20T00:01:46;5.00;;;2.70;;
24163;SDS011;12319;49.204;8.116;2023-12-20T00:04:12;4.85;;;2.72;;
24163;SDS011;12319;49.204;8.116;2023-12-20T00:06:37;5.03;;;2.40;;
24163;SDS011;12319;49.204;8.116;2023-12-20T00:09:03;5.47;;;2.90;;
24163;SDS011;12319;49.204;8.116;2023-12-20T00:11:28;6.33;;;2.80;;
24163;SDS011;12319;49.204;8.116;2023-12-20T00:13:54;4.47;;;2.35;;
24163;SDS011;12319;49.204;8.116;2023-12-20T00:16:19;6.27;;;3.13;;
24163;SDS011;12319;49.204;8.116;2023-12-20T00:18:45;4.00;;;2.10;;
24163;SDS011;12319;49.204;8.116;2023-12-20T00:21:10;3.90;;;2.00;;
24163;SDS011;12319;49.204;8.116;2023-12-20T00:23:36;3.30;;;1.80;;
24163;SDS011;12319;49.204;8.116;2023-12-20T00:26:01;3.73;;;2.00;;
24163;SDS011;12319;49.204;8.116;2023-12-20T00:28:27;3.72;;;2.00;;
24163;SDS011;12319;49.204;8.116;2023-12-20T00:30:52;4.47;;;2.08;;
24163;SDS011;12319;49.204;8.116;2023-12-20T00:33:18;2.90;;;1.70;;
24163;SDS011;12319;49.204;8.116;2023-12-20T00:35:44;2.78;;;1.70;;
24163;SDS011;12319;49.204;8.116;2023-12-20T00:38:09;2.57;;;1.50;;
24163;SDS011;12319;49.204;8.116;2023-12-20T00:40:36;2.75;;;1.73;;
24163;SDS011;12319;49.204;8.116;2023-12-20T00:43:01;2.10;;;1.40;;
24163;SDS011;12319;49.204;8.116;2023-12-20T00:45:27;2.40;;;1.48;;
24163;SDS011;12319;49.204;8.116;2023-12-20T00:47:52;2.40;;;1.50;;
24163;SDS011;12319;49.204;8.116;2023-12-20T00:50:18;4.13;;;1.73;;
24163;SDS011;12319;49.204;8.116;2023-12-20T00:52:44;3.03;;;1.70;;
24163;SDS011;12319;49.204;8.116;2023-12-20T00:55:09;4.63;;;1.60;;
24163;SDS011;12319;49.204;8.116;2023-12-20T00:57:35;3.17;;;1.70;;
24163;SDS011;12319;49.204;8.116;2023-12-20T01:00:00;2.40;;;1.50;;
24163;SDS011;12319;49.204;8.116;2023-12-20T01:02:26;2.22;;;1.50;;
24163;SDS011;12319;49.204;8.116;2023-12-20T01:04:51;2.37;;;1.50;;
24163;SDS011;12319;49.204;8.116;2023-12-20T01:07:17;2.47;;;1.60;;
24163;SDS011;12319;49.204;8.116;2023-12-20T01:09:43;1.90;;;1.40;;
24163;SDS011;12319;49.204;8.116;2023-12-20T01:12:08;2.63;;;1.50;;
24163;SDS011;12319;49.204;8.116;2023-12-20T01:14:34;2.70;;;1.60;;
24163;SDS011;12319;49.204;8.116;2023-12-20T01:16:59;2.60;;;1.70;;
24163;SDS011;12319;49.204;8.116;2023-12-20T01:19:25;2.23;;;1.47;;
24163;SDS011;12319;49.204;8.116;2023-12-20T01:21:52;2.10;;;1.50;;
24163;SDS011;12319;49.204;8.116;2023-12-20T01:24:17;2.83;;;1.60;;
24163;SDS011;12319;49.204;8.116;2023-12-20T01:26:43;2.47;;;1.63;;
24163;SDS011;12319;49.204;8.116;2023-12-20T01:29:08;1.90;;;1.30;;
24163;SDS011;12319;49.204;8.116;2023-12-20T01:31:34;2.22;;;1.50;;
24163;SDS011;12319;49.204;8.116;2023-12-20T01:34:00;2.40;;;1.50;;
24163;SDS011;12319;49.204;8.116;2023-12-20T01:36:25;2.20;;;1.50;;
24163;SDS011;12319;49.204;8.116;2023-12-20T01:38:51;3.43;;;1.50;;
24163;SDS011;12319;49.204;8.116;2023-12-20T01:41:16;2.83;;;1.60;;
24163;SDS011;12319;49.204;8.116;2023-12-20T01:43:42;2.63;;;1.60;;
24163;SDS011;12319;49.204;8.116;2023-12-20T01:46:08;2.40;;;1.60;;
24163;SDS011;12319;49.204;8.116;2023-12-20T01:48:33;2.05;;;1.42;;
24163;SDS011;12319;49.204;8.116;2023-12-20T01:51:00;2.47;;;1.50;;
24163;SDS011;12319;49.204;8.116;2023-12-20T01:53:26;2.30;;;1.45;;
24163;SDS011;12319;49.204;8.116;2023-12-20T01:55:54;2.10;;;1.45;;
24163;SDS011;12319;49.204;8.116;2023-12-20T01:58:20;2.00;;;1.40;;
24163;SDS011;12319;49.204;8.116;2023-12-20T02:00:46;2.08;;;1.40;;
24163;SDS011;12319;49.204;8.116;2023-12-20T02:03:13;2.30;;;1.50;;
24163;SDS011;12319;49.204;8.116;2023-12-20T02:05:39;2.17;;;1.45;;
24163;SDS011;12319;49.204;8.116;2023-12-20T02:08:05;2.42;;;1.48;;
24163;SDS011;12319;49.204;8.116;2023-12-20T02:10:31;2.33;;;1.53;;
24163;SDS011;12319;49.204;8.116;2023-12-20T02:12:57;2.20;;;1.50;;
24163;SDS011;12319;49.204;8.116;2023-12-20T02:15:23;2.28;;;1.50;;
24163;SDS011;12319;49.204;8.116;2023-12-20T02:17:49;2.53;;;1.50;;
24163;SDS011;12319;49.204;8.116;2023-12-20T02:20:15;2.35;;;1.50;;
24163;SDS011;12319;49.204;8.116;2023-12-20T02:22:40;2.17;;;1.50;;
24163;SDS011;12319;49.204;8.116;2023-12-20T02:25:06;2.55;;;1.55;;
24163;SDS011;12319;49.204;8.116;2023-12-20T02:27:32;2.33;;;1.50;;
24163;SDS011;12319;49.204;8.116;2023-12-20T02:29:58;2.30;;;1.50;;
24163;SDS011;12319;49.204;8.116;2023-12-20T02:32:24;2.20;;;1.50;;
24163;SDS011;12319;49.204;8.116;2023-12-20T02:34:56;2.15;;;1.50;;
24163;SDS011;12319;49.204;8.116;2023-12-20T02:37:21;2.27;;;1.50;;
24163;SDS011;12319;49.204;8.116;2023-12-20T02:39:47;2.70;;;1.67;;
24163;SDS011;12319;49.204;8.116;2023-12-20T02:42:12;2.78;;;1.63;;
24163;SDS011;12319;49.204;8.116;2023-12-20T02:44:38;3.03;;;1.70;;
24163;SDS011;12319;49.204;8.116;2023-12-20T02:47:03;2.50;;;1.63;;
24163;SDS011;12319;49.204;8.116;2023-12-20T02:49:29;2.40;;;1.60;;
24163;SDS011;12319;49.204;8.116;2023-12-20T02:51:55;2.30;;;1.50;;
24163;SDS011;12319;49.204;8.116;2023-12-20T02:54:20;2.10;;;1.50;;
24163;SDS011;12319;49.204;8.116;2023-12-20T02:56:46;2.05;;;1.35;;
24163;SDS011;12319;49.204;8.116;2023-12-20T02:59:12;2.20;;;1.50;;
24163;SDS011;12319;49.204;8.116;2023-12-20T03:01:44;3.03;;;1.58;;
24163;SDS011;12319;49.204;8.116;2023-12-20T03:04:10;2.58;;;1.50;;
24163;SDS011;12319;49.204;8.116;2023-12-20T03:06:36;2.10;;;1.47;;
24163;SDS011;12319;49.204;8.116;2023-12-20T03:09:02;2.08;;;1.40;;
24163;SDS011;12319;49.204;8.116;2023-12-20T03:11:28;2.27;;;1.50;;
24163;SDS011;12319;49.204;8.116;2023-12-20T03:13:54;2.38;;;1.50;;
24163;SDS011;12319;49.204;8.116;2023-12-20T03:16:19;2.40;;;1.50;;
24163;SDS011;12319;49.204;8.116;2023-12-20T03:18:45;2.50;;;1.50;;
24163;SDS011;12319;49.204;8.116;2023-12-20T03:21:11;2.20;;;1.40;;
24163;SDS011;12319;49.204;8.116;2023-12-20T03:23:36;2.78;;;1.80;;
24163;SDS011;12319;49.204;8.116;2023-12-20T03:26:02;2.40;;;1.50;;
24163;SDS011;12319;49.204;8.116;2023-12-20T03:28:28;2.40;;;1.58;;
24163;SDS011;12319;49.204;8.116;2023-12-20T03:30:54;2.70;;;1.60;;
24163;SDS011;12319;49.204;8.116;2023-12-20T03:33:20;3.15;;;1.60;;
24163;SDS011;12319;49.204;8.116;2023-12-20T03:35:45;2.60;;;1.60;;
24163;SDS011;12319;49.204;8.116;2023-12-20T03:38:11;2.70;;;1.60;;
24163;SDS011;12319;49.204;8.116;2023-12-20T03:40:36;2.70;;;1.70;;
24163;SDS011;12319;49.204;8.116;2023-12-20T03:43:02;2.47;;;1.60;;
24163;SDS011;12319;49.204;8.116;2023-12-20T03:45:27;2.97;;;1.67;;
24163;SDS011;12319;49.204;8.116;2023-12-20T03:47:53;2.83;;;1.60;;
24163;SDS011;12319;49.204;8.116;2023-12-20T03:50:21;3.17;;;1.70;;
24163;SDS011;12319;49.204;8.116;2023-12-20T03:52:47;3.05;;;1.80;;
24163;SDS011;12319;49.204;8.116;2023-12-20T03:55:13;3.10;;;1.70;;
24163;SDS011;12319;49.204;8.116;2023-12-20T03:57:38;2.75;;;1.60;;
24163;SDS011;12319;49.204;8.116;2023-12-20T04:00:04;2.80;;;1.67;;
24163;SDS011;12319;49.204;8.116;2023-12-20T04:02:34;3.33;;;1.80;;
24163;SDS011;12319;49.204;8.116;2023-12-20T04:04:59;3.80;;;1.97;;
24163;SDS011;12319;49.204;8.116;2023-12-20T04:07:25;3.85;;;1.92;;
24163;SDS011;12319;49.204;8.116;2023-12-20T04:09:50;3.42;;;1.98;;
24163;SDS011;12319;49.204;8.116;2023-12-20T04:12:16;3.37;;;1.73;;
24163;SDS011;12319;49.204;8.116;2023-12-20T04:14:41;3.20;;;1.87;;
24163;SDS011;12319;49.204;8.116;2023-12-20T04:17:07;3.70;;;1.77;;
24163;SDS011;12319;49.204;8.116;2023-12-20T04:19:32;3.53;;;1.90;;
24163;SDS011;12319;49.204;8.116;2023-12-20T04:21:58;3.57;;;2.00;;
24163;SDS011;12319;49.204;8.116;2023-12-20T04:24:23;3.87;;;2.10;;
24163;SDS011;12319;49.204;8.116;2023-12-20T04:26:49;3.60;;;1.80;;
24163;SDS011;12319;49.204;8.116;2023-12-20T04:29:14;3.80;;;1.93;;
24163;SDS011;12319;49.204;8.116;2023-12-20T04:31:40;3.37;;;1.87;;
24163;SDS011;12319;49.204;8.116;2023-12-20T04:34:05;3.97;;;2.00;;
24163;SDS011;12319;49.204;8.116;2023-12-20T04:36:31;3.50;;;1.80;;
24163;SDS011;12319;49.204;8.116;2023-12-20T04:38:57;3.27;;;1.90;;
24163;SDS011;12319;49.204;8.116;2023-12-20T04:41:22;4.18;;;2.22;;
24163;SDS011;12319;49.204;8.116;2023-12-20T04:43:48;3.50;;;1.80;;
24163;SDS011;12319;49.204;8.116;2023-12-20T04:46:13;3.67;;;1.97;;
24163;SDS011;12319;49.204;8.116;2023-12-20T04:48:38;3.53;;;1.93;;
24163;SDS011;12319;49.204;8.116;2023-12-20T04:51:04;3.67;;;2.13;;
24163;SDS011;12319;49.204;8.116;2023-12-20T04:53:31;4.07;;;2.03;;
24163;SDS011;12319;49.204;8.116;2023-12-20T04:55:56;3.50;;;1.90;;
24163;SDS011;12319;49.204;8.116;2023-12-20T04:58:22;3.33;;;1.83;;
24163;SDS011;12319;49.204;8.116;2023-12-20T05:00:47;3.60;;;1.95;;
24163;SDS011;12319;49.204;8.116;2023-12-20T05:03:13;2.77;;;1.67;;
24163;SDS011;12319;49.204;8.116;2023-12-20T05:05:38;3.83;;;1.93;;
24163;SDS011;12319;49.204;8.116;2023-12-20T05:08:04;3.40;;;1.80;;
24163;SDS011;12319;49.204;8.116;2023-12-20T05:10:30;3.28;;;1.90;;
24163;SDS011;12319;49.204;8.116;2023-12-20T05:12:55;2.97;;;1.70;;
24163;SDS011;12319;49.204;8.116;2023-12-20T05:15:21;3.55;;;1.80;;
24163;SDS011;12319;49.204;8.116;2023-12-20T05:17:46;3.83;;;1.97;;
24163;SDS011;12319;49.204;8.116;2023-12-20T05:20:12;3.30;;;1.80;;
24163;SDS011;12319;49.204;8.116;2023-12-20T05:22:37;3.45;;;1.90;;
24163;SDS011;12319;49.204;8.116;2023-12-20T05:25:03;3.00;;;1.70;;
24163;SDS011;12319;49.204;8.116;2023-12-20T05:27:29;3.60;;;1.80;;
24163;SDS011;12319;49.204;8.116;2023-12-20T05:29:55;3.20;;;1.87;;
24163;SDS011;12319;49.204;8.116;2023-12-20T05:32:22;3.10;;;1.70;;
24163;SDS011;12319;49.204;8.116;2023-12-20T05:34:48;2.70;;;1.50;;
24163;SDS011;12319;49.204;8.116;2023-12-20T05:37:14;3.03;;;1.70;;
24163;SDS011;12319;49.204;8.116;2023-12-20T05:39:39;3.10;;;1.80;;
24163;SDS011;12319;49.204;8.116;2023-12-20T05:42:05;4.40;;;2.13;;
24163;SDS011;12319;49.204;8.116;2023-12-20T05:44:30;3.17;;;1.80;;
24163;SDS011;12319;49.204;8.116;2023-12-20T05:46:56;3.40;;;1.95;;
24163;SDS011;12319;49.204;8.116;2023-12-20T05:49:21;3.53;;;1.90;;
24163;SDS011;12319;49.204;8.116;2023-12-20T05:51:47;3.67;;;1.90;;
24163;SDS011;12319;49.204;8.116;2023-12-20T05:54:13;3.63;;;1.90;;
24163;SDS011;12319;49.204;8.116;2023-12-20T05:56:38;4.10;;;2.00;;
24163;SDS011;12319;49.204;8.116;2023-12-20T05:59:04;3.55;;;2.10;;
24163;SDS011;12319;49.204;8.116;2023-12-20T06:01:29;3.80;;;1.90;;
24163;SDS011;12319;49.204;8.116;2023-12-20T06:03:55;4.03;;;2.30;;
24163;SDS011;12319;49.204;8.116;2023-12-20T06:06:21;3.50;;;1.73;;
24163;SDS011;12319;49.204;8.116;2023-12-20T06:08:46;3.53;;;1.93;;
24163;SDS011;12319;49.204;8.116;2023-12-20T06:11:12;3.07;;;1.80;;
24163;SDS011;12319;49.204;8.116;2023-12-20T06:13:38;3.17;;;1.77;;
24163;SDS011;12319;49.204;8.116;2023-12-20T06:16:05;3.93;;;2.00;;
24163;SDS011;12319;49.204;8.116;2023-12-20T06:18:31;4.05;;;1.92;;
24163;SDS011;12319;49.204;8.116;2023-12-20T06:20:57;3.65;;;1.90;;
24163;SDS011;12319;49.204;8.116;2023-12-20T06:23:23;3.80;;;2.03;;
24163;SDS011;12319;49.204;8.116;2023-12-20T06:25:48;4.00;;;2.00;;
24163;SDS011;12319;49.204;8.116;2023-12-20T06:28:14;3.90;;;2.05;;
24163;SDS011;12319;49.204;8.116;2023-12-20T06:30:39;3.50;;;1.87;;
24163;SDS011;12319;49.204;8.116;2023-12-20T06:33:05;3.75;;;2.00;;
24163;SDS011;12319;49.204;8.116;2023-12-20T06:35:31;3.20;;;1.83;;
24163;SDS011;12319;49.204;8.116;2023-12-20T06:37:57;3.55;;;1.90;;
24163;SDS011;12319;49.204;8.116;2023-12-20T06:40:23;3.80;;;2.00;;
24163;SDS011;12319;49.204;8.116;2023-12-20T06:42:48;3.60;;;1.90;;
24163;SDS011;12319;49.204;8.116;2023-12-20T06:45:14;4.00;;;2.10;;
24163;SDS011;12319;49.204;8.116;2023-12-20T06:47:39;4.40;;;2.20;;
24163;SDS011;12319;49.204;8.116;2023-12-20T06:50:05;5.07;;;2.20;;
24163;SDS011;12319;49.204;8.116;2023-12-20T06:52:33;4.30;;;2.00;;
24163;SDS011;12319;49.204;8.116;2023-12-20T06:54:59;4.45;;;2.20;;
24163;SDS011;12319;49.204;8.116;2023-12-20T06:57:24;4.60;;;2.37;;
24163;SDS011;12319;49.204;8.116;2023-12-20T06:59:51;3.58;;;2.00;;
24163;SDS011;12319;49.204;8.116;2023-12-20T07:02:17;3.65;;;1.90;;
24163;SDS011;12319;49.204;8.116;2023-12-20T07:04:42;3.90;;;2.10;;
24163;SDS011;12319;49.204;8.116;2023-12-20T07:07:08;4.40;;;2.37;;
24163;SDS011;12319;49.204;8.116;2023-12-20T07:09:34;3.72;;;1.90;;
24163;SDS011;12319;49.204;8.116;2023-12-20T07:11:59;3.50;;;2.00;;
24163;SDS011;12319;49.204;8.116;2023-12-20T07:14:25;3.20;;;1.80;;
24163;SDS011;12319;49.204;8.116;2023-12-20T07:16:51;3.67;;;1.80;;
24163;SDS011;12319;49.204;8.116;2023-12-20T07:19:16;3.97;;;2.00;;
24163;SDS011;12319;49.204;8.116;2023-12-20T07:21:42;4.20;;;2.10;;
24163;SDS011;12319;49.204;8.116;2023-12-20T07:24:08;4.35;;;2.10;;
24163;SDS011;12319;49.204;8.116;2023-12-20T07:26:34;3.77;;;1.90;;
24163;SDS011;12319;49.204;8.116;2023-12-20T07:29:00;3.75;;;2.05;;
24163;SDS011;12319;49.204;8.116;2023-12-20T07:31:25;5.00;;;1.97;;
24163;SDS011;12319;49.204;8.116;2023-12-20T07:33:51;3.67;;;1.92;;
24163;SDS011;12319;49.204;8.116;2023-12-20T07:36:17;4.10;;;2.00;;
24163;SDS011;12319;49.204;8.116;2023-12-20T07:38:44;3.70;;;1.90;;
24163;SDS011;12319;49.204;8.116;2023-12-20T07:41:10;3.27;;;1.80;;
24163;SDS011;12319;49.204;8.116;2023-12-20T07:43:36;3.50;;;2.00;;
24163;SDS011;12319;49.204;8.116;2023-12-20T07:46:05;3.57;;;1.80;;
24163;SDS011;12319;49.204;8.116;2023-12-20T07:48:32;3.97;;;2.00;;
24163;SDS011;12319;49.204;8.116;2023-12-20T07:50:58;4.57;;;1.90;;
24163;SDS011;12319;49.204;8.116;2023-12-20T07:53:24;3.00;;;1.80;;
24163;SDS011;12319;49.204;8.116;2023-12-20T07:55:49;3.35;;;1.92;;
24163;SDS011;12319;49.204;8.116;2023-12-20T07:58:17;4.30;;;2.10;;
24163;SDS011;12319;49.204;8.116;2023-12-20T08:00:43;4.22;;;1.90;;
24163;SDS011;12319;49.204;8.116;2023-12-20T08:03:09;4.17;;;2.20;;
24163;SDS011;12319;49.204;8.116;2023-12-20T08:05:34;4.10;;;2.10;;
24163;SDS011;12319;49.204;8.116;2023-12-20T08:08:00;4.23;;;2.00;;
24163;SDS011;12319;49.204;8.116;2023-12-20T08:10:25;3.40;;;1.80;;
24163;SDS011;12319;49.204;8.116;2023-12-20T08:12:54;3.20;;;1.60;;
24163;SDS011;12319;49.204;8.116;2023-12-20T08:15:20;3.13;;;1.80;;
24163;SDS011;12319;49.204;8.116;2023-12-20T08:17:45;3.67;;;1.80;;
24163;SDS011;12319;49.204;8.116;2023-12-20T08:20:11;3.60;;;1.80;;
24163;SDS011;12319;49.204;8.116;2023-12-20T08:22:36;2.97;;;1.70;;
24163;SDS011;12319;49.204;8.116;2023-12-20T08:25:02;3.13;;;1.80;;
24163;SDS011;12319;49.204;8.116;2023-12-20T08:27:29;5.45;;;1.60;;
24163;SDS011;12319;49.204;8.116;2023-12-20T08:29:56;3.05;;;1.70;;
24163;SDS011;12319;49.204;8.116;2023-12-20T08:32:24;3.37;;;1.70;;
24163;SDS011;12319;49.204;8.116;2023-12-20T08:34:51;3.22;;;1.67;;
24163;SDS011;12319;49.204;8.116;2023-12-20T08:37:16;3.30;;;1.80;;
24163;SDS011;12319;49.204;8.116;2023-12-20T08:39:42;2.93;;;1.70;;
24163;SDS011;12319;49.204;8.116;2023-12-20T08:42:09;3.72;;;2.08;;
24163;SDS011;12319;49.204;8.116;2023-12-20T08:44:34;3.22;;;1.80;;
24163;SDS011;12319;49.204;8.116;2023-12-20T08:47:00;3.55;;;2.00;;
24163;SDS011;12319;49.204;8.116;2023-12-20T08:49:25;3.53;;;1.60;;
24163;SDS011;12319;49.204;8.116;2023-12-20T08:51:52;3.05;;;1.65;;
24163;SDS011;12319;49.204;8.116;2023-12-20T08:54:18;5.10;;;1.87;;
24163;SDS011;12319;49.204;8.116;2023-12-20T08:56:44;3.47;;;1.90;;
24163;SDS011;12319;49.204;8.116;2023-12-20T08:59:11;3.35;;;1.70;;
24163;SDS011;12319;49.204;8.116;2023-12-20T09:01:37;3.38;;;1.70;;
24163;SDS011;12319;49.204;8.116;2023-12-20T09:04:02;3.13;;;1.67;;
24163;SDS011;12319;49.204;8.116;2023-12-20T09:06:28;5.70;;;1.80;;
24163;SDS011;12319;49.204;8.116;2023-12-20T09:08:53;3.22;;;1.67;;
24163;SDS011;12319;49.204;8.116;2023-12-20T09:11:19;4.90;;;1.70;;
24163;SDS011;12319;49.204;8.116;2023-12-20T09:13:44;3.73;;;1.70;;
24163;SDS011;12319;49.204;8.116;2023-12-20T09:16:10;3.77;;;2.03;;
24163;SDS011;12319;49.204;8.116;2023-12-20T09:18:35;3.25;;;1.90;;
24163;SDS011;12319;49.204;8.116;2023-12-20T09:21:01;3.20;;;1.77;;
24163;SDS011;12319;49.204;8.116;2023-12-20T09:23:27;3.75;;;1.70;;
24163;SDS011;12319;49.204;8.116;2023-12-20T09:25:53;3.53;;;1.90;;
24163;SDS011;12319;49.204;8.116;2023-12-20T09:28:19;4.50;;;2.10;;
24163;SDS011;12319;49.204;8.116;2023-12-20T09:30:44;4.30;;;1.93;;
24163;SDS011;12319;49.204;8.116;2023-12-20T09:33:11;5.00;;;1.88;;
24163;SDS011;12319;49.204;8.116;2023-12-20T09:35:36;3.75;;;1.90;;
24163;SDS011;12319;49.204;8.116;2023-12-20T09:38:02;2.97;;;1.50;;
24163;SDS011;12319;49.204;8.116;2023-12-20T09:40:28;3.83;;;1.60;;
24163;SDS011;12319;49.204;8.116;2023-12-20T09:42:57;2.97;;;1.80;;
24163;SDS011;12319;49.204;8.116;2023-12-20T09:45:28;4.03;;;1.98;;
24163;SDS011;12319;49.204;8.116;2023-12-20T09:47:55;3.67;;;1.55;;
24163;SDS011;12319;49.204;8.116;2023-12-20T09:50:22;3.17;;;1.60;;
24163;SDS011;12319;49.204;8.116;2023-12-20T09:52:49;2.87;;;1.50;;
24163;SDS011;12319;49.204;8.116;2023-12-20T09:55:19;5.18;;;2.00;;
24163;SDS011;12319;49.204;8.116;2023-12-20T09:57:46;5.32;;;1.77;;
24163;SDS011;12319;49.204;8.116;2023-12-20T10:00:13;3.28;;;1.70;;
24163;SDS011;12319;49.204;8.116;2023-12-20T10:02:43;3.67;;;1.90;;
24163;SDS011;12319;49.204;8.116;2023-12-20T10:05:15;3.67;;;1.60;;
24163;SDS011;12319;49.204;8.116;2023-12-20T10:07:45;3.97;;;1.70;;
24163;SDS011;12319;49.204;8.116;2023-12-20T10:10:12;2.90;;;1.60;;
24163;SDS011;12319;49.204;8.116;2023-12-20T10:12:38;3.88;;;2.00;;
24163;SDS011;12319;49.204;8.116;2023-12-20T10:15:04;6.20;;;2.00;;
24163;SDS011;12319;49.204;8.116;2023-12-20T10:17:30;3.22;;;1.60;;
24163;SDS011;12319;49.204;8.116;2023-12-20T10:19:57;3.60;;;1.60;;
24163;SDS011;12319;49.204;8.116;2023-12-20T10:22:23;4.65;;;2.00;;
24163;SDS011;12319;49.204;8.116;2023-12-20T10:24:49;5.03;;;1.90;;
24163;SDS011;12319;49.204;8.116;2023-12-20T10:27:14;5.38;;;1.90;;
24163;SDS011;12319;49.204;8.116;2023-12-20T10:29:44;3.70;;;1.70;;
24163;SDS011;12319;49.204;8.116;2023-12-20T10:32:22;4.15;;;1.67;;
24163;SDS011;12319;49.204;8.116;2023-12-20T10:34:49;4.40;;;1.53;;
24163;SDS011;12319;49.204;8.116;2023-12-20T10:37:15;4.00;;;1.70;;
24163;SDS011;12319;49.204;8.116;2023-12-20T10:39:42;3.95;;;1.70;;
24163;SDS011;12319;49.204;8.116;2023-12-20T10:42:09;5.00;;;1.90;;
24163;SDS011;12319;49.204;8.116;2023-12-20T10:44:36;5.30;;;1.80;;
24163;SDS011;12319;49.204;8.116;2023-12-20T10:47:02;3.20;;;1.60;;
24163;SDS011;12319;49.204;8.116;2023-12-20T10:49:29;2.80;;;1.60;;
24163;SDS011;12319;49.204;8.116;2023-12-20T10:51:56;3.58;;;1.70;;
24163;SDS011;12319;49.204;8.116;2023-12-20T10:54:27;4.23;;;1.70;;
24163;SDS011;12319;49.204;8.116;2023-12-20T10:56:52;4.03;;;1.90;;
24163;SDS011;12319;49.204;8.116;2023-12-20T10:59:19;3.57;;;1.80;;
24163;SDS011;12319;49.204;8.116;2023-12-20T11:01:45;3.47;;;1.90;;
24163;SDS011;12319;49.204;8.116;2023-12-20T11:04:15;4.35;;;1.80;;
24163;SDS011;12319;49.204;8.116;2023-12-20T11:06:53;4.18;;;1.80;;
24163;SDS011;12319;49.204;8.116;2023-12-20T11:09:35;5.45;;;1.92;;
24163;SDS011;12319;49.204;8.116;2023-12-20T11:14:46;5.78;;;2.10;;
24163;SDS011;12319;49.204;8.116;2023-12-20T11:17:14;2.90;;;1.70;;
24163;SDS011;12319;49.204;8.116;2023-12-20T11:22:24;5.53;;;2.03;;
24163;SDS011;12319;49.204;8.116;2023-12-20T11:24:50;4.73;;;1.90;;
24163;SDS011;12319;49.204;8.116;2023-12-20T11:27:16;3.53;;;1.83;;
24163;SDS011;12319;49.204;8.116;2023-12-20T11:29:50;4.88;;;1.90;;
24163;SDS011;12319;49.204;8.116;2023-12-20T11:34:50;4.10;;;1.90;;
24163;SDS011;12319;49.204;8.116;2023-12-20T11:37:16;3.97;;;1.80;;
24163;SDS011;12319;49.204;8.116;2023-12-20T11:39:44;5.20;;;1.90;;
24163;SDS011;12319;49.204;8.116;2023-12-20T11:42:09;4.60;;;1.98;;
24163;SDS011;12319;49.204;8.116;2023-12-20T11:44:36;4.57;;;1.80;;
24163;SDS011;12319;49.204;8.116;2023-12-20T11:47:02;3.70;;;1.92;;
24163;SDS011;12319;49.204;8.116;2023-12-20T11:49:28;3.47;;;1.80;;
24163;SDS011;12319;49.204;8.116;2023-12-20T11:51:55;4.18;;;1.80;;
24163;SDS011;12319;49.204;8.116;2023-12-20T11:54:21;6.03;;;2.10;;
24163;SDS011;12319;49.204;8.116;2023-12-20T11:56:47;3.90;;;1.80;;
24163;SDS011;12319;49.204;8.116;2023-12-20T11:59:13;3.92;;;1.90;;
24163;SDS011;12319;49.204;8.116;2023-12-20T12:01:38;3.60;;;1.90;;
24163;SDS011;12319;49.204;8.116;2023-12-20T12:04:04;3.87;;;1.80;;
24163;SDS011;12319;49.204;8.116;2023-12-20T12:06:31;4.43;;;1.83;;
24163;SDS011;12319;49.204;8.116;2023-12-20T12:08:57;5.07;;;2.10;;
24163;SDS011;12319;49.204;8.116;2023-12-20T12:11:23;3.93;;;2.00;;
24163;SDS011;12319;49.204;8.116;2023-12-20T12:13:49;4.13;;;2.00;;
24163;SDS011;12319;49.204;8.116;2023-12-20T12:16:17;4.90;;;1.90;;
24163;SDS011;12319;49.204;8.116;2023-12-20T12:18:46;4.93;;;1.92;;
24163;SDS011;12319;49.204;8.116;2023-12-20T12:21:19;4.95;;;1.90;;
24163;SDS011;12319;49.204;8.116;2023-12-20T12:23:45;4.88;;;1.83;;
24163;SDS011;12319;49.204;8.116;2023-12-20T12:26:11;4.27;;;1.90;;
24163;SDS011;12319;49.204;8.116;2023-12-20T12:28:37;3.60;;;1.90;;
24163;SDS011;12319;49.204;8.116;2023-12-20T12:31:05;3.97;;;1.77;;
24163;SDS011;12319;49.204;8.116;2023-12-20T12:33:31;2.97;;;1.60;;
24163;SDS011;12319;49.204;8.116;2023-12-20T12:35:56;5.50;;;1.80;;
24163;SDS011;12319;49.204;8.116;2023-12-20T12:38:22;4.67;;;1.70;;
24163;SDS011;12319;49.204;8.116;2023-12-20T12:40:49;3.97;;;1.83;;
24163;SDS011;12319;49.204;8.116;2023-12-20T12:43:15;4.97;;;2.10;;
24163;SDS011;12319;49.204;8.116;2023-12-20T12:45:41;6.70;;;2.20;;
24163;SDS011;12319;49.204;8.116;2023-12-20T12:48:06;4.27;;;1.90;;
24163;SDS011;12319;49.204;8.116;2023-12-20T12:50:32;4.40;;;2.05;;
24163;SDS011;12319;49.204;8.116;2023-12-20T12:52:57;4.17;;;1.90;;
24163;SDS011;12319;49.204;8.116;2023-12-20T12:55:23;6.32;;;2.33;;
24163;SDS011;12319;49.204;8.116;2023-12-20T12:57:49;4.93;;;1.97;;
24163;SDS011;12319;49.204;8.116;2023-12-20T13:00:14;4.18;;;1.83;;
24163;SDS011;12319;49.204;8.116;2023-12-20T13:02:40;4.80;;;1.80;;
24163;SDS011;12319;49.204;8.116;2023-12-20T13:05:08;3.50;;;1.80;;
24163;SDS011;12319;49.204;8.116;2023-12-20T13:07:34;4.67;;;2.03;;
24163;SDS011;12319;49.204;8.116;2023-12-20T13:09:59;3.55;;;1.80;;
24163;SDS011;12319;49.204;8.116;2023-12-20T13:12:25;3.30;;;1.70;;
24163;SDS011;12319;49.204;8.116;2023-12-20T13:14:51;4.43;;;1.83;;
24163;SDS011;12319;49.204;8.116;2023-12-20T13:17:16;4.80;;;2.05;;
24163;SDS011;12319;49.204;8.116;2023-12-20T13:19:42;3.67;;;1.90;;
24163;SDS011;12319;49.204;8.116;2023-12-20T13:22:08;5.25;;;1.80;;
24163;SDS011;12319;49.204;8.116;2023-12-20T13:24:33;5.13;;;2.00;;
24163;SDS011;12319;49.204;8.116;2023-12-20T13:26:59;4.53;;;2.00;;
24163;SDS011;12319;49.204;8.116;2023-12-20T13:29:25;5.17;;;2.03;;
24163;SDS011;12319;49.204;8.116;2023-12-20T13:31:53;5.18;;;1.80;;
24163;SDS011;12319;49.204;8.116;2023-12-20T13:34:19;7.25;;;2.10;;
24163;SDS011;12319;49.204;8.116;2023-12-20T13:36:45;4.80;;;1.90;;
24163;SDS011;12319;49.204;8.116;2023-12-20T13:39:12;3.45;;;1.80;;
24163;SDS011;12319;49.204;8.116;2023-12-20T13:41:38;4.35;;;1.90;;
24163;SDS011;12319;49.204;8.116;2023-12-20T13:44:04;5.23;;;2.07;;
24163;SDS011;12319;49.204;8.116;2023-12-20T13:46:30;4.40;;;2.00;;
24163;SDS011;12319;49.204;8.116;2023-12-20T13:48:56;6.78;;;1.85;;
24163;SDS011;12319;49.204;8.116;2023-12-20T13:51:21;6.57;;;1.98;;
24163;SDS011;12319;49.204;8.116;2023-12-20T13:53:47;3.57;;;1.90;;
24163;SDS011;12319;49.204;8.116;2023-12-20T13:56:13;2.95;;;1.75;;
24163;SDS011;12319;49.204;8.116;2023-12-20T13:58:39;3.47;;;1.70;;
24163;SDS011;12319;49.204;8.116;2023-12-20T14:01:06;6.63;;;2.00;;
24163;SDS011;12319;49.204;8.116;2023-12-20T14:03:32;5.28;;;2.00;;
24163;SDS011;12319;49.204;8.116;2023-12-20T14:05:58;5.53;;;1.85;;
24163;SDS011;12319;49.204;8.116;2023-12-20T14:08:25;4.40;;;2.10;;
24163;SDS011;12319;49.204;8.116;2023-12-20T14:10:52;5.33;;;2.20;;
24163;SDS011;12319;49.204;8.116;2023-12-20T14:13:17;4.78;;;2.20;;
24163;SDS011;12319;49.204;8.116;2023-12-20T14:15:43;4.03;;;1.80;;
24163;SDS011;12319;49.204;8.116;2023-12-20T14:18:09;5.07;;;2.00;;
24163;SDS011;12319;49.204;8.116;2023-12-20T14:20:35;5.65;;;1.80;;
24163;SDS011;12319;49.204;8.116;2023-12-20T14:23:04;3.63;;;1.70;;
24163;SDS011;12319;49.204;8.116;2023-12-20T14:25:29;3.22;;;1.70;;
24163;SDS011;12319;49.204;8.116;2023-12-20T14:27:56;3.47;;;1.70;;
24163;SDS011;12319;49.204;8.116;2023-12-20T14:30:22;3.22;;;1.67;;
24163;SDS011;12319;49.204;8.116;2023-12-20T14:32:47;5.63;;;1.83;;
24163;SDS011;12319;49.204;8.116;2023-12-20T14:35:13;3.40;;;1.70;;
24163;SDS011;12319;49.204;8.116;2023-12-20T14:37:39;3.25;;;1.80;;
24163;SDS011;12319;49.204;8.116;2023-12-20T14:40:08;3.88;;;1.80;;
24163;SDS011;12319;49.204;8.116;2023-12-20T14:42:39;6.38;;;2.00;;
24163;SDS011;12319;49.204;8.116;2023-12-20T14:45:11;6.57;;;2.20;;
24163;SDS011;12319;49.204;8.116;2023-12-20T14:47:39;4.07;;;1.70;;
24163;SDS011;12319;49.204;8.116;2023-12-20T14:50:06;5.57;;;2.00;;